Skip Navigation Links
NOAA logo - Click to go to the NOAA homepage
NOAA's National Weather Service
Alaska Aviation Weather Unit
  NWS logo - Click to go to the NWS homepage
Left Navbar Graphic     23 AKDT = 07 GMT

   
NOAA is celebrating 200 years of science, service, and stewardship. Visit the NOAA 200th celebration Web site to learn more.
USA.gov is the U.S. Government's official Web portal to all Federal, state and local government Web resources and services.
Facebook
NWS on Facebook

Important Change Regarding the AAWU Web Presence

 

Over the last several months, the AAWU has been working to navigate its webpages to a nationally supported server. Security, as well as other needs, have necessitated the change.  In the process, we have made an effort to enhance the functionality of our website, as well as some of our products. As of June 20, 2017, aawu.arh.noaa.gov will be discontinued. The new AAWU web address is weather.gov/aawu. It is now live and will run in-parallel with the old site until it is discontinued. Please send any feedback or questions regarding the new webpages to nws.ar.aawu.webauthors@noaa.gov.  Thank you for your patience during this time of transition.
AAWU Home :: Display TAF Add Bookmark
TAF PABR 240532Z 2406/2506 07014KT P6SM OVC004
     FM241200 08009KT 4SM BR OVC004
     FM241400 10008KT 2SM BR OVC004
     FM241700 10008KT 4SM BR OVC004
     FM241900 09009KT 6SM BR OVC007
     FM242100 09009KT P6SM OVC007=

PABR 240153Z 07014KT 10SM OVC007 M01/M03 A2992= PABR 240253Z 07013KT 10SM OVC007 M01/M03 A2992= PABR 240353Z 07013KT 10SM OVC006 M02/M03 A2991= PABR 240438Z 06014KT 10SM OVC004 M02/M03 A2991= SPECI PABR 240438Z 06014KT 10SM OVC004 M02/M03 A2991 RMK AO2 T10221033= PABR 240453Z 07014KT 10SM OVC004 M02/M03 A2991= PABR 240553Z 07015KT 10SM OVC004 M02/M03 A2991= SPECI PABR 240636Z AUTO 07013KT 8SM OVC005 M02/M03 A2991 RMK AO2 SNB10E15 P0000 T10171028 TSNO= PABR 240653Z AUTO 07013KT 10SM OVC005 M02/M03 A2992=
 Alaska TAF Map

NOAA's National Weather Service
Alaska Aviation Weather Unit
6930 Sand Lake Road
Anchorage, AK 99502-1845
Disclaimer
Credits
Glossary
Privacy Policy
About Us
Career Opportunities
Contact AAWU Internet Services Site last modified: April, 17th 2012